Monday, April 23, 2018, 1:43 AM GMT
Back to Local

CYMX, Montreal / Mirabel

Location: , , Canada Lat: 45.683
Local Time: 1:43 AM GMT ( 1:43 GMT) Lon: -74.033
Time Zone: GMT Elev: 269 ft

Show me the last for .
Show Coded

Time T Td Feel RH Dir Speed Gust Alt SLP Vis Weather Sky Remarks
2018-04-23 01:00 48 12 - 23 Variable 2 - 30.38 30.39 25 FEW250 None
2018-04-23 00:00 50 14 49 23 270° 3 - 30.36 30.37 25 FEW250 None
2018-04-22 23:00 55 10 - 16 320° 9 - 30.35 30.37 45 CLR None
2018-04-22 22:00 57 10 - 15 260° 9 - 30.35 30.36 45 CLR None
2018-04-22 21:00 57 12 - 16 320° 8 - 30.36 30.37 45 CLR None
2018-04-22 20:00 57 12 - 16 320° 10 - 30.36 30.38 45 CLR None
2018-04-22 19:00 55 12 - 17 290° 10 - 30.38 30.40 45 FEW220 None
2018-04-22 18:00 54 12 - 18 250° 7 - 30.39 30.40 45 CLR None
2018-04-22 17:00 54 14 - 20 300° 8 - 30.40 30.41 45 CLR None
2018-04-22 16:00 52 14 - 21 Variable 2 - 30.41 30.42 45 CLR None
2018-04-22 15:00 50 19 48 29 240° 6 - 30.41 30.43 45 CLR None
2018-04-22 14:00 48 19 46 31 230° 6 - 30.41 30.43 45 CLR None
2018-04-22 13:00 45 18 43 33 50° 3 - 30.42 30.43 45 CLR None
2018-04-22 12:00 37 21 35 51 310° 3 - 30.42 30.43 45 CLR None
2018-04-22 11:00 30 23 27 74 280° 3 - 30.40 30.42 45 CLR None
2018-04-22 10:00 28 18 - 63 - Calm - 30.38 30.39 45 CLR None
2018-04-22 09:00 30 18 - 58 330° 2 - 30.37 30.38 25 CLR None
2018-04-22 08:00 28 19 25 68 280° 3 - 30.37 30.38 25 CLR None
2018-04-22 07:00 30 18 25 58 280° 5 - 30.36 30.37 25 CLR None
2018-04-22 06:00 34 18 - 50 - Calm - 30.35 30.37 25 CLR None
2018-04-22 05:00 36 18 33 47 320° 3 - 30.35 30.37 25 CLR None
2018-04-22 04:00 36 18 33 47 340° 3 - 30.34 30.35 25 CLR None
2018-04-22 03:00 39 16 37 38 290° 3 - 30.33 30.34 25 CLR None
2018-04-22 02:00 39 16 37 38 270° 3 - 30.32 30.33 25 CLR None

Support USWX by starting your Amazon purchase here.